createdAt,value
2018-03-04T00:02:06.493Z,86.13
2018-03-04T00:04:33.931Z,80.37
2018-03-04T00:07:02.134Z,97.90
2018-03-04T00:09:29.584Z,87.03
2018-03-04T00:11:57.079Z,90.07
2018-03-04T00:14:24.599Z,84.80
2018-03-04T00:16:52.016Z,87.03
2018-03-04T00:19:19.471Z,75.97
2018-03-04T00:21:46.896Z,82.60
2018-03-04T00:24:14.365Z,81.53
2018-03-04T00:26:41.798Z,88.47
2018-03-04T00:29:09.257Z,71.10
2018-03-04T00:31:36.699Z,80.37
2018-03-04T00:34:04.132Z,87.10
2018-03-04T00:36:32.340Z,80.77
2018-03-04T00:38:59.769Z,90.37
2018-03-04T00:41:27.220Z,80.03
2018-03-04T00:43:54.667Z,81.40
2018-03-04T00:46:22.868Z,78.73
2018-03-04T00:48:50.940Z,89.57
2018-03-04T00:51:18.386Z,76.87
2018-03-04T00:53:45.816Z,76.43
2018-03-04T00:56:13.260Z,90.20
2018-03-04T00:58:40.707Z,101.17
2018-03-04T01:01:08.154Z,79.37
2018-03-04T01:03:35.595Z,89.90
2018-03-04T01:06:03.021Z,126.57
2018-03-04T01:08:31.240Z,82.33
2018-03-04T01:10:58.672Z,77.47
2018-03-04T01:13:26.155Z,85.77
2018-03-04T01:15:53.584Z,103.60
2018-03-04T01:18:21.033Z,95.03
2018-03-04T01:20:48.689Z,106.43
2018-03-04T01:23:16.127Z,112.37
2018-03-04T01:25:43.583Z,95.67
2018-03-04T01:28:11.025Z,78.43
2018-03-04T01:30:38.466Z,98.50
2018-03-04T01:33:05.917Z,99.80
2018-03-04T01:35:33.369Z,101.53
2018-03-04T01:38:00.827Z,93.10
2018-03-04T01:40:28.287Z,90.53
2018-03-04T01:42:55.796Z,102.83
2018-03-04T01:45:23.228Z,127.87
2018-03-04T01:47:50.667Z,88.77
2018-03-04T01:50:18.131Z,84.53
2018-03-04T01:52:46.259Z,99.90
2018-03-04T01:55:13.695Z,106.30
2018-03-04T01:57:41.132Z,91.57
2018-03-04T02:00:09.365Z,98.33
2018-03-04T02:02:36.800Z,109.50
2018-03-04T02:05:04.460Z,104.80
2018-03-04T02:07:31.907Z,93.13
2018-03-04T02:09:59.356Z,105.20
2018-03-04T02:12:26.788Z,104.33
2018-03-04T02:14:54.232Z,90.27
2018-03-04T02:17:21.680Z,98.20
2018-03-04T02:19:49.121Z,90.33
2018-03-04T02:22:16.590Z,108.80
2018-03-04T02:24:44.023Z,96.67
2018-03-04T02:27:11.477Z,106.43
2018-03-04T02:29:38.899Z,87.30
2018-03-04T02:32:07.124Z,104.60
2018-03-04T02:34:34.551Z,98.00
2018-03-04T02:37:02.007Z,132.07
2018-03-04T02:39:29.688Z,134.37
2018-03-04T02:41:57.106Z,139.43
2018-03-04T02:44:25.331Z,94.17
2018-03-04T02:46:52.787Z,97.13
2018-03-04T02:49:20.237Z,94.60
2018-03-04T02:51:47.697Z,100.70
2018-03-04T02:54:15.129Z,91.40
2018-03-04T02:56:42.572Z,88.25
2018-03-04T02:59:10.022Z,101.60
2018-03-04T03:01:37.456Z,86.13
2018-03-04T03:04:04.904Z,115.20
2018-03-04T03:06:32.360Z,103.63
2018-03-04T03:08:59.814Z,93.50
2018-03-04T03:11:27.235Z,109.00
2018-03-04T03:13:54.675Z,90.17
2018-03-04T03:16:22.884Z,81.60
2018-03-04T03:18:50.327Z,101.63
2018-03-04T03:21:17.779Z,107.97
2018-03-04T03:23:45.221Z,98.07
2018-03-04T03:26:12.671Z,122.30
2018-03-04T03:28:40.115Z,97.87
2018-03-04T03:31:07.548Z,95.60
2018-03-04T03:33:35.057Z,100.77
2018-03-04T03:36:02.500Z,103.63
2018-03-04T03:38:29.940Z,111.45
2018-03-04T03:40:57.392Z,119.33
2018-03-04T03:43:24.836Z,107.70
2018-03-04T03:45:52.287Z,90.27
2018-03-04T03:48:19.726Z,93.20
2018-03-04T03:50:47.212Z,105.67
2018-03-04T03:53:14.669Z,89.00
2018-03-04T03:55:42.129Z,85.80
2018-03-04T03:58:09.573Z,93.90
2018-03-04T04:00:37.011Z,101.63
2018-03-04T04:03:04.466Z,97.13
2018-03-04T04:05:31.922Z,108.43
2018-03-04T04:07:59.368Z,100.70
2018-03-04T04:10:26.809Z,99.13
2018-03-04T04:12:54.239Z,99.37
2018-03-04T04:15:22.452Z,81.97
2018-03-04T04:17:49.884Z,96.80
2018-03-04T04:20:17.318Z,92.03
2018-03-04T04:22:44.766Z,87.57
2018-03-04T04:25:12.212Z,91.87
2018-03-04T04:27:39.668Z,88.63
2018-03-04T04:30:07.107Z,81.20
2018-03-04T04:32:34.547Z,87.30
2018-03-04T04:35:01.972Z,93.77
2018-03-04T04:37:30.184Z,87.40
2018-03-04T04:39:57.624Z,75.10
2018-03-04T04:42:25.059Z,86.00
2018-03-04T04:44:52.551Z,109.30
2018-03-04T04:47:19.972Z,100.27
2018-03-04T04:49:47.677Z,123.60
2018-03-04T04:52:15.116Z,108.17
2018-03-04T04:54:42.569Z,135.17
2018-03-04T04:57:10.004Z,165.67
2018-03-04T04:59:37.600Z,165.30
2018-03-04T05:02:05.054Z,159.03
2018-03-04T05:04:32.475Z,174.57
2018-03-04T05:06:59.911Z,137.30
2018-03-04T05:09:27.370Z,162.07
2018-03-04T05:11:54.802Z,143.13
2018-03-04T05:14:22.259Z,128.70
2018-03-04T05:16:49.729Z,140.63
2018-03-04T05:19:17.156Z,119.03
2018-03-04T05:21:44.700Z,114.13
2018-03-04T05:24:12.159Z,122.03
2018-03-04T05:26:39.600Z,138.40
2018-03-04T05:29:07.028Z,132.77
2018-03-04T05:31:34.480Z,127.37
2018-03-04T05:34:01.933Z,102.60
2018-03-04T05:36:29.352Z,109.90
2018-03-04T05:38:56.811Z,118.27
2018-03-04T05:41:24.261Z,118.93
2018-03-04T05:43:51.824Z,115.90
2018-03-04T05:46:19.266Z,128.07
2018-03-04T05:48:46.708Z,142.50
2018-03-04T05:51:14.167Z,154.00
2018-03-04T05:53:41.647Z,120.23
2018-03-04T05:56:09.079Z,99.47
2018-03-04T05:58:36.532Z,108.97
2018-03-04T06:01:03.975Z,109.60
2018-03-04T06:03:31.428Z,126.17
2018-03-04T06:05:58.885Z,112.28
2018-03-04T06:08:26.334Z,96.07
2018-03-04T06:10:53.775Z,88.53
2018-03-04T06:13:21.228Z,88.23
2018-03-04T06:15:48.655Z,80.65
2018-03-04T06:18:16.099Z,98.40
2018-03-04T06:20:44.295Z,87.37
2018-03-04T06:23:11.747Z,119.87
2018-03-04T06:25:39.176Z,100.73
2018-03-04T06:28:06.616Z,93.77
2018-03-04T06:30:34.057Z,105.07
2018-03-04T06:33:01.514Z,191.33
2018-03-04T06:35:28.963Z,140.57
2018-03-04T06:37:56.397Z,90.13
2018-03-04T06:40:23.847Z,104.70
2018-03-04T06:42:51.303Z,107.23
2018-03-04T06:45:18.742Z,95.67
2018-03-04T06:47:46.964Z,102.37
2018-03-04T06:50:14.400Z,80.17
2018-03-04T06:52:41.832Z,75.93
2018-03-04T06:55:09.270Z,74.70
2018-03-04T06:57:36.695Z,80.47
2018-03-04T07:00:04.152Z,74.10
2018-03-04T07:02:31.599Z,70.63
2018-03-04T07:04:59.031Z,65.07
2018-03-04T07:07:26.483Z,60.77
2018-03-04T07:09:53.928Z,62.70
2018-03-04T07:12:22.130Z,63.37
2018-03-04T07:14:49.576Z,59.40
2018-03-04T07:17:17.026Z,63.87
2018-03-04T07:19:44.459Z,63.87
2018-03-04T07:22:12.660Z,60.53
2018-03-04T07:24:40.104Z,65.30
2018-03-04T07:27:08.330Z,62.70
2018-03-04T07:29:35.775Z,60.23
2018-03-04T07:32:03.201Z,68.13
2018-03-04T07:34:30.648Z,67.97
2018-03-04T07:36:58.861Z,61.63
2018-03-04T07:39:26.287Z,57.13
2018-03-04T07:41:53.738Z,64.30
2018-03-04T07:44:21.164Z,65.50
2018-03-04T07:46:48.603Z,73.73
2018-03-04T07:49:16.038Z,65.43
2018-03-04T07:51:43.496Z,65.97
2018-03-04T07:54:10.920Z,65.03
2018-03-04T07:56:39.127Z,64.03
2018-03-04T07:59:06.563Z,57.00
2018-03-04T08:01:33.988Z,61.07
2018-03-04T08:04:01.465Z,61.07
2018-03-04T08:06:28.863Z,55.20
2018-03-04T08:08:56.311Z,60.50
2018-03-04T08:11:23.769Z,51.73
2018-03-04T08:13:51.951Z,54.70
2018-03-04T08:16:19.403Z,56.97
2018-03-04T08:18:46.831Z,59.73
2018-03-04T08:21:14.272Z,59.17
2018-03-04T08:23:41.704Z,60.30
2018-03-04T08:26:20.803Z,60.67
2018-03-04T08:28:48.258Z,59.70
2018-03-04T08:31:15.712Z,60.47
2018-03-04T08:33:43.156Z,57.53
2018-03-04T08:36:10.583Z,58.97
2018-03-04T08:38:38.828Z,56.17
2018-03-04T08:41:06.226Z,59.57
2018-03-04T08:43:33.678Z,61.97
2018-03-04T08:46:01.151Z,59.37
2018-03-04T08:48:28.580Z,64.10
2018-03-04T08:50:56.024Z,58.03
2018-03-04T08:53:23.483Z,59.63
2018-03-04T08:55:50.909Z,58.87
2018-03-04T08:58:18.395Z,56.43
2018-03-04T09:00:45.831Z,58.80
2018-03-04T09:03:13.271Z,58.00
2018-03-04T09:05:40.732Z,52.50
2018-03-04T09:08:08.155Z,51.67
2018-03-04T09:10:36.362Z,59.53
2018-03-04T09:13:03.824Z,52.07
2018-03-04T09:15:31.263Z,50.90
2018-03-04T09:17:58.689Z,57.27
2018-03-04T09:20:26.902Z,54.50
2018-03-04T09:22:54.335Z,55.00
2018-03-04T09:25:21.777Z,54.10
2018-03-04T09:27:49.972Z,53.37
2018-03-04T09:30:17.420Z,54.63
2018-03-04T09:32:44.853Z,55.23
2018-03-04T09:35:12.291Z,55.93
2018-03-04T09:37:39.744Z,59.97
2018-03-04T09:40:07.195Z,56.40
2018-03-04T09:42:34.632Z,52.87
2018-03-04T09:45:02.071Z,54.93
2018-03-04T09:47:29.508Z,56.47
2018-03-04T09:49:56.931Z,56.07
2018-03-04T09:52:24.394Z,54.97
2018-03-04T09:54:51.819Z,57.47
2018-03-04T09:57:19.274Z,61.03
2018-03-04T09:59:46.720Z,56.57
2018-03-04T10:02:14.176Z,64.90
2018-03-04T10:04:41.623Z,57.60
2018-03-04T10:07:09.052Z,54.00
2018-03-04T10:09:36.487Z,53.93
2018-03-04T10:12:03.944Z,49.03
2018-03-04T10:14:31.396Z,48.80
2018-03-04T10:16:58.826Z,49.10
2018-03-04T10:19:26.259Z,54.63
2018-03-04T10:21:53.702Z,50.80
2018-03-04T10:24:21.901Z,50.20
2018-03-04T10:26:49.359Z,52.97
2018-03-04T10:29:17.723Z,52.97
2018-03-04T10:31:45.151Z,57.40
2018-03-04T10:34:12.664Z,45.83
2018-03-04T10:36:40.100Z,51.30
2018-03-04T10:39:07.543Z,46.00
2018-03-04T10:41:35.757Z,47.60
2018-03-04T10:44:03.211Z,45.70
2018-03-04T10:46:30.642Z,43.03
2018-03-04T10:48:58.091Z,42.40
2018-03-04T10:51:25.516Z,42.60
2018-03-04T10:53:52.963Z,38.90
2018-03-04T10:56:20.472Z,51.90
2018-03-04T10:58:47.899Z,38.33
2018-03-04T11:01:20.163Z,36.17
2018-03-04T11:03:47.605Z,34.30
2018-03-04T11:06:15.043Z,41.97
2018-03-04T11:08:42.718Z,30.13
2018-03-04T11:11:10.139Z,32.20
2018-03-04T11:13:37.777Z,28.83
2018-03-04T11:16:05.221Z,30.73
2018-03-04T11:18:32.651Z,31.00
2018-03-04T11:21:00.092Z,31.20
2018-03-04T11:23:27.551Z,27.47
2018-03-04T11:25:55.003Z,37.57
2018-03-04T11:28:22.448Z,32.80
2018-03-04T11:30:49.876Z,32.80
2018-03-04T11:33:18.292Z,39.43
2018-03-04T11:35:45.831Z,37.17
2018-03-04T11:38:13.281Z,40.33
2018-03-04T11:40:40.731Z,28.80
2018-03-04T11:43:08.176Z,32.47
2018-03-04T11:45:35.607Z,33.80
2018-03-04T11:48:03.047Z,28.07
2018-03-04T11:50:30.489Z,29.73
2018-03-04T11:52:57.949Z,29.17
2018-03-04T11:55:25.391Z,30.10
2018-03-04T11:57:52.931Z,29.37
2018-03-04T12:00:20.372Z,29.03
2018-03-04T12:02:47.818Z,36.50
2018-03-04T12:05:15.246Z,33.80
2018-03-04T12:07:42.704Z,27.07
2018-03-04T12:10:10.378Z,36.97
2018-03-04T12:12:37.829Z,33.10
2018-03-04T12:15:05.258Z,30.40
2018-03-04T12:17:32.905Z,28.33
2018-03-04T12:20:00.335Z,33.40
2018-03-04T12:22:27.783Z,27.63
2018-03-04T12:24:55.224Z,26.80
2018-03-04T12:27:22.714Z,25.77
2018-03-04T12:29:50.149Z,25.63
2018-03-04T12:32:17.575Z,27.17
2018-03-04T12:34:45.011Z,28.50
2018-03-04T12:37:12.451Z,24.80
2018-03-04T12:39:39.890Z,23.73
2018-03-04T12:42:08.136Z,28.67
2018-03-04T12:44:35.771Z,25.93
2018-03-04T12:47:03.196Z,35.77
2018-03-04T12:49:31.407Z,24.40
2018-03-04T12:51:58.860Z,28.23
2018-03-04T12:54:26.312Z,23.93
2018-03-04T12:56:53.739Z,30.13
2018-03-04T12:59:21.437Z,25.97
2018-03-04T13:01:48.894Z,25.80
2018-03-04T13:04:16.320Z,23.17
2018-03-04T13:06:43.767Z,25.07
2018-03-04T13:09:11.963Z,23.47
2018-03-04T13:11:39.407Z,23.00
2018-03-04T13:14:06.892Z,27.03
2018-03-04T13:16:34.344Z,21.43
2018-03-04T13:19:01.808Z,19.57
2018-03-04T13:21:29.587Z,24.90
2018-03-04T13:23:57.334Z,19.97
2018-03-04T13:26:25.671Z,23.73
2018-03-04T13:28:53.104Z,19.30
2018-03-04T13:31:20.555Z,25.40
2018-03-04T13:33:47.989Z,22.07
2018-03-04T13:36:15.452Z,20.37
2018-03-04T13:38:42.868Z,18.53
2018-03-04T13:41:10.305Z,18.77
2018-03-04T13:43:37.809Z,20.43
2018-03-04T13:46:05.238Z,18.63
2018-03-04T13:48:33.032Z,19.47
2018-03-04T13:51:00.462Z,17.07
2018-03-04T13:53:28.663Z,17.50
2018-03-04T13:55:56.106Z,18.93
2018-03-04T13:58:23.552Z,17.97
2018-03-04T14:00:50.992Z,17.90
2018-03-04T14:03:18.422Z,14.90
2018-03-04T14:05:45.878Z,16.10
2018-03-04T14:08:13.305Z,17.93
2018-03-04T14:10:40.837Z,16.67
2018-03-04T14:13:08.283Z,11.80
2018-03-04T14:15:35.708Z,13.43
2018-03-04T14:18:03.148Z,18.80
2018-03-04T14:20:30.592Z,17.73
2018-03-04T14:22:58.046Z,16.43
2018-03-04T14:25:25.498Z,19.97
2018-03-04T14:27:52.908Z,17.27
2018-03-04T14:30:21.141Z,20.13
2018-03-04T14:32:48.584Z,20.40
2018-03-04T14:35:16.042Z,20.10
2018-03-04T14:37:43.484Z,15.33
2018-03-04T14:40:10.919Z,17.93
2018-03-04T14:42:39.164Z,20.43
2018-03-04T14:45:06.611Z,19.70
2018-03-04T14:47:34.060Z,15.97
2018-03-04T14:50:01.515Z,17.30
2018-03-04T14:52:28.956Z,18.17
2018-03-04T14:54:57.483Z,15.73
2018-03-04T14:57:24.932Z,21.00
2018-03-04T14:59:52.380Z,18.20
2018-03-04T15:02:19.823Z,18.03
2018-03-04T15:04:47.265Z,22.93
2018-03-04T15:07:14.724Z,23.10
2018-03-04T15:09:42.169Z,17.47
2018-03-04T15:12:09.600Z,17.00
2018-03-04T15:14:37.810Z,19.00
2018-03-04T15:17:05.239Z,20.87
2018-03-04T15:19:32.701Z,22.60
2018-03-04T15:22:00.163Z,18.23
2018-03-04T15:24:27.627Z,16.40
2018-03-04T15:26:55.043Z,21.97
2018-03-04T15:29:22.480Z,17.67
2018-03-04T15:31:50.165Z,17.53
2018-03-04T15:34:17.584Z,20.37
2018-03-04T15:36:45.044Z,17.83
2018-03-04T15:39:12.647Z,19.37
2018-03-04T15:41:40.090Z,18.87
2018-03-04T15:44:07.516Z,17.30
2018-03-04T15:46:34.965Z,20.40
2018-03-04T15:49:02.412Z,17.30
2018-03-04T15:51:29.872Z,19.63
2018-03-04T15:53:57.327Z,19.27
2018-03-04T15:56:25.004Z,18.27
2018-03-04T15:58:52.445Z,18.90
2018-03-04T16:01:20.079Z,17.53
2018-03-04T16:03:47.512Z,22.77
2018-03-04T16:06:14.980Z,23.17
2018-03-04T16:08:42.467Z,23.93
2018-03-04T16:11:09.892Z,25.93
2018-03-04T16:13:37.328Z,23.57
2018-03-04T16:16:04.766Z,25.00
2018-03-04T16:18:32.218Z,31.20
2018-03-04T16:20:59.846Z,23.97
2018-03-04T16:23:27.255Z,26.80
2018-03-04T16:25:54.725Z,26.87
2018-03-04T16:28:22.168Z,28.93
2018-03-04T16:30:49.796Z,25.43
2018-03-04T16:33:17.279Z,24.87
2018-03-04T16:35:44.732Z,22.67
2018-03-04T16:38:12.202Z,24.13
2018-03-04T16:40:39.654Z,23.73
2018-03-04T16:43:07.100Z,24.17
2018-03-04T16:45:35.519Z,21.80
2018-03-04T16:48:03.839Z,20.20
2018-03-04T16:50:31.262Z,22.33
2018-03-04T16:52:58.709Z,21.47
2018-03-04T16:55:26.904Z,22.10
2018-03-04T16:57:54.389Z,26.83
2018-03-04T17:00:21.828Z,21.73
2018-03-04T17:02:49.300Z,22.20
2018-03-04T17:05:16.721Z,24.07
2018-03-04T17:07:44.167Z,21.43
2018-03-04T17:10:12.388Z,22.20
2018-03-04T17:12:39.820Z,19.87
2018-03-04T17:15:07.265Z,20.63
2018-03-04T17:17:35.520Z,24.60
2018-03-04T17:20:02.987Z,27.13
2018-03-04T17:22:31.233Z,25.10
2018-03-04T17:24:58.666Z,25.43
2018-03-04T17:27:26.099Z,27.83
2018-03-04T17:29:53.752Z,27.93
2018-03-04T17:32:21.196Z,28.13
2018-03-04T17:34:48.626Z,29.57
2018-03-04T17:37:16.085Z,29.20
2018-03-04T17:39:43.820Z,31.70
2018-03-04T17:42:11.248Z,29.90
2018-03-04T17:44:38.683Z,28.13
2018-03-04T17:47:06.906Z,28.53
2018-03-04T17:49:34.335Z,30.00
2018-03-04T17:52:01.800Z,29.27
2018-03-04T17:54:29.244Z,31.00
2018-03-04T17:56:56.688Z,33.10
2018-03-04T17:59:24.145Z,35.03
2018-03-04T18:01:51.593Z,31.50
2018-03-04T18:04:19.018Z,32.40
2018-03-04T18:06:46.467Z,29.87
2018-03-04T18:09:13.895Z,36.93
2018-03-04T18:11:41.328Z,32.93
2018-03-04T18:14:08.891Z,31.87
2018-03-04T18:16:37.122Z,31.00
2018-03-04T18:19:04.544Z,33.97
2018-03-04T18:21:32.000Z,37.10
2018-03-04T18:23:59.424Z,31.13
2018-03-04T18:26:26.859Z,34.80
2018-03-04T18:28:54.296Z,31.73
2018-03-04T18:31:21.753Z,34.83
2018-03-04T18:33:49.208Z,35.67
2018-03-04T18:36:16.632Z,33.80
2018-03-04T18:38:44.067Z,35.77
2018-03-04T18:41:11.504Z,39.50
2018-03-04T18:43:38.976Z,35.67
2018-03-04T18:46:06.438Z,37.10
2018-03-04T18:48:33.859Z,37.83
2018-03-04T18:51:01.300Z,37.33
2018-03-04T18:53:28.739Z,40.67
2018-03-04T18:55:56.215Z,40.70
2018-03-04T18:58:23.952Z,42.07
2018-03-04T19:00:51.387Z,40.27
2018-03-04T19:03:19.590Z,39.00
2018-03-04T19:05:47.015Z,44.83
2018-03-04T19:08:14.453Z,37.40
2018-03-04T19:10:41.895Z,45.93
2018-03-04T19:13:09.337Z,43.47
2018-03-04T19:15:36.763Z,43.37
2018-03-04T19:18:04.200Z,42.77
2018-03-04T19:20:32.405Z,45.03
2018-03-04T19:22:59.854Z,46.87
2018-03-04T19:25:27.278Z,46.33
2018-03-04T19:27:54.725Z,37.13
2018-03-04T19:30:22.175Z,48.00
2018-03-04T19:32:49.621Z,46.80
2018-03-04T19:35:17.075Z,45.73
2018-03-04T19:37:44.529Z,44.70
2018-03-04T19:40:11.972Z,47.40
2018-03-04T19:42:39.484Z,48.00
2018-03-04T19:45:06.927Z,47.30
2018-03-04T19:47:34.365Z,41.03
2018-03-04T19:50:01.820Z,48.57
2018-03-04T19:52:29.267Z,50.20
2018-03-04T19:54:56.714Z,46.40
2018-03-04T19:57:24.151Z,45.27
2018-03-04T19:59:51.595Z,46.10
2018-03-04T20:02:19.806Z,49.27
2018-03-04T20:04:47.227Z,45.20
2018-03-04T20:07:14.663Z,47.37
2018-03-04T20:09:42.097Z,47.43
2018-03-04T20:12:09.552Z,50.93
2018-03-04T20:14:37.021Z,42.80
2018-03-04T20:17:04.433Z,45.23
2018-03-04T20:19:31.856Z,51.87
2018-03-04T20:22:00.068Z,53.30
2018-03-04T20:24:27.488Z,54.73
2018-03-04T20:26:54.947Z,51.53
2018-03-04T20:29:22.452Z,55.97
2018-03-04T20:31:49.926Z,52.17
2018-03-04T20:34:17.324Z,54.40
2018-03-04T20:36:44.755Z,52.13
2018-03-04T20:39:12.188Z,52.53
2018-03-04T20:41:39.675Z,50.00
2018-03-04T20:44:07.089Z,46.80
2018-03-04T20:46:34.527Z,49.83
2018-03-04T20:49:02.064Z,56.73
2018-03-04T20:51:29.503Z,59.10
2018-03-04T20:53:56.964Z,61.97
2018-03-04T20:56:24.403Z,57.60
2018-03-04T20:58:51.835Z,51.77
2018-03-04T21:01:19.305Z,55.63
2018-03-04T21:03:46.716Z,58.43
2018-03-04T21:06:14.154Z,59.93
2018-03-04T21:08:42.354Z,65.63
2018-03-04T21:11:09.808Z,51.30
2018-03-04T21:13:37.236Z,54.03
2018-03-04T21:16:04.673Z,52.57
2018-03-04T21:18:32.123Z,57.97
2018-03-04T21:20:59.560Z,60.23
2018-03-04T21:23:26.997Z,56.73
2018-03-04T21:25:54.419Z,58.37
2018-03-04T21:28:22.632Z,60.33
2018-03-04T21:30:50.111Z,58.60
2018-03-04T21:33:17.519Z,62.80
2018-03-04T21:35:44.943Z,63.50
2018-03-04T21:38:12.396Z,65.20
2018-03-04T21:40:39.846Z,58.10
2018-03-04T21:43:07.265Z,62.50
2018-03-04T21:45:34.727Z,58.33
2018-03-04T21:48:02.156Z,60.73
2018-03-04T21:50:30.346Z,54.47
2018-03-04T21:52:57.783Z,58.40
2018-03-04T21:55:25.286Z,56.67
2018-03-04T21:57:52.723Z,57.80
2018-03-04T22:00:20.155Z,58.77
2018-03-04T22:02:47.602Z,61.30
2018-03-04T22:05:15.028Z,64.87
2018-03-04T22:07:42.483Z,61.07
2018-03-04T22:10:09.992Z,57.40
2018-03-04T22:12:37.431Z,54.77
2018-03-04T22:15:04.866Z,57.53
2018-03-04T22:17:32.304Z,58.13
2018-03-04T22:19:59.735Z,69.40
2018-03-04T22:22:27.179Z,59.87
2018-03-04T22:24:54.614Z,57.73
2018-03-04T22:27:22.061Z,59.83
2018-03-04T22:29:49.495Z,58.83
2018-03-04T22:32:16.940Z,55.57
2018-03-04T22:34:44.395Z,51.13
2018-03-04T22:37:11.855Z,61.27
2018-03-04T22:39:39.492Z,55.07
2018-03-04T22:42:06.940Z,60.23
2018-03-04T22:44:34.387Z,52.83
2018-03-04T22:47:02.579Z,56.27
2018-03-04T22:49:30.017Z,60.03
2018-03-04T22:51:58.215Z,55.87
2018-03-04T22:54:25.677Z,56.67
2018-03-04T22:56:53.107Z,52.63
2018-03-04T22:59:21.323Z,58.63
2018-03-04T23:01:48.755Z,58.57
2018-03-04T23:04:16.204Z,55.27
2018-03-04T23:06:43.631Z,54.80
2018-03-04T23:09:11.075Z,55.47
2018-03-04T23:11:38.533Z,57.03
2018-03-04T23:14:05.976Z,62.43
2018-03-04T23:16:33.442Z,60.40
2018-03-04T23:19:00.855Z,59.17
2018-03-04T23:21:28.303Z,65.87
2018-03-04T23:23:55.733Z,64.77
2018-03-04T23:26:23.177Z,58.47
2018-03-04T23:28:50.619Z,57.63
2018-03-04T23:31:18.067Z,62.53
2018-03-04T23:33:45.498Z,60.00
2018-03-04T23:36:12.924Z,57.00
2018-03-04T23:38:41.164Z,57.23
2018-03-04T23:41:08.577Z,60.27
2018-03-04T23:43:36.143Z,54.73
2018-03-04T23:46:03.567Z,56.77
2018-03-04T23:48:31.019Z,60.87
2018-03-04T23:50:58.476Z,57.07
2018-03-04T23:53:25.925Z,54.17
2018-03-04T23:55:53.343Z,55.43
2018-03-04T23:58:20.783Z,59.87
